Weather observations for the past three days for
Watsonville, Watsonville Municipal Airport
Metric (Imperial)
Date Time (pdt) Wind (kph) Vis. (km) Weather Sky Cond. Temperature (ºC) Relative Humidity Wind Chill (°C) Heat Index (°C) Pressure Precipitation (cm)
Air Dwpt 6 hour altimeter (cm) sea level (mb) 1 hr 3 hr 6 hr
Max. Min.
30 23:53 SW 6 16.09 Overcast OVC008 13.9 11.7 87% 76.05 1013.7
30 22:53 Calm 16.09 Overcast OVC008 13.9 12.2 18.9 13.9 90% 76.05 1013.9
30 21:53 SE 6 16.09 Overcast OVC009 14.4 12.2 87% 76.07 1014.2
30 20:53 Calm 16.09 Overcast OVC008 14.4 12.2 87% 76.05 1013.9
30 19:53 SW 7 16.09 Overcast OVC009 14.4 12.2 87% 76.02 1013.5
30 18:53 SW 17 16.09 Partly Cloudy SCT010 15.6 12.2 80% 76.02 1013.5
30 17:53 SW 20 16.09 Fair CLR 17.2 12.2 73% 76.02 1013.4
30 16:53 SW 15 16.09 Fair CLR 18.9 12.2 21.1 16.7 65% 76.02 1013.4
30 15:53 SW 11 16.09 Fair CLR 20 11.7 59% 76.02 1013.5
30 14:53 SW 13 16.09 Fair CLR 20.6 11.1 55% 76.07 1014.0
30 13:53 SW 17 G 28 16.09 Fair CLR 20.6 12.2 59% 76.12 1014.8
30 12:53 SW 13 16.09 Fair CLR 19.4 11.7 61% 76.15 1015.2
30 11:53 S 7 16.09 Fair CLR 18.3 11.7 66% 76.17 1015.6
30 09:53 Vrbl 6 16.09 Overcast OVC009 15 11.7 81% 76.2 1015.7
30 08:53 Calm 16.09 Overcast OVC007 13.9 11.7 87% 76.2 1015.7
30 07:53 Calm 11.27 Overcast OVC005 13.3 12.2 93% 76.2 1015.7
30 06:53 SE 6 12.87 Overcast OVC005 12.8 11.7 93% 76.17 1015.3
30 05:53 Vrbl 6 12.87 Overcast OVC005 13.3 11.7 90% 76.12 1014.9
30 04:53 Calm 14.48 Overcast OVC005 13.3 11.7 14.4 11.7 90% 76.12 1014.8
30 03:53 Calm 16.09 Overcast OVC007 12.8 11.1 90% 76.12 1014.7
30 02:53 N 6 16.09 Overcast OVC008 11.7 10 89% 76.1 1014.6
30 01:53 N 6 16.09 Fair CLR 12.2 10.6 90% 76.12 1014.6
30 00:53 N 6 16.09 Fair CLR 12.8 10.6 87% 76.15 1015.0
29 23:53 Calm 16.09 Fair CLR 13.3 11.1 87% 76.15 1015.0
29 22:53 E 6 16.09 Fair CLR 14.4 11.7 20.6 13.9 84% 76.15 1015.1
29 21:53 E 6 16.09 Fair CLR 15 11.7 81% 76.15 1015.1
29 20:53 E 9 16.09 Fair CLR 15.6 12.2 80% 76.12 1014.7
29 19:53 SE 9 16.09 Fair CLR 16.1 12.2 78% 76.07 1014.0
29 18:53 SE 11 16.09 Fair CLR 17.8 12.2 70% 76.07 1014.1
29 17:53 S 15 16.09 Fair CLR 18.9 12.8 68% 76.05 1014.0
29 16:53 SE 17 16.09 Fair CLR 20 12.8 22.8 18.3 63% 76.05 1013.9
29 15:53 S 13 16.09 Fair CLR 20.6 13.3 63% 76.1 1014.4
29 14:53 S 15 16.09 Fair CLR 21.7 12.2 55% 76.12 1015.0
29 13:53 S 15 16.09 Fair CLR 21.7 12.8 57% 76.17 1015.4
29 12:53 SW 11 16.09 Fair CLR 20.6 12.8 61% 76.2 1015.9
29 11:53 S 13 16.09 Fair CLR 20 13.3 65% 76.25 1016.5
29 10:53 Vrbl 6 16.09 Fair CLR 18.3 12.8 18.3 12.2 70% 76.28 1016.8
29 09:53 Calm 16.09 Overcast OVC005 15 12.2 83% 76.28 1017.0
29 08:53 Calm 2.01 Fog/Mist OVC002 12.8 12.8 100% 76.25 1016.6
29 07:53 Calm 0.40 Fog VV002 12.2 12.2 100% 76.28 1016.7
29 06:53 Calm 1.61 Fog/Mist OVC002 12.8 12.2 96% 76.2 1015.7
29 05:53 S 6 6.44 Fog/Mist OVC003 12.8 12.2 96% 76.17 1015.3
29 04:53 Calm 0.40 Fog VV002 12.8 12.8 15 12.2 100% 76.15 1015.1
29 03:53 Calm 16.09 Mostly Cloudy BKN003 12.8 11.7 93% 76.15 1015.1
29 02:53 Calm 16.09 Fair CLR 13.3 12.2 93% 76.15 1015.0
29 01:53 Calm 16.09 Fair CLR 12.8 11.7 93% 76.12 1014.8
29 00:53 W 6 16.09 Fair CLR 13.9 12.2 90% 76.15 1015.0
28 23:53 Calm 16.09 Fair CLR 14.4 12.2 87% 76.12 1014.9
28 22:53 SE 6 16.09 Fair CLR 14.4 12.2 23.9 14.4 87% 76.15 1015.0
28 21:53 S 7 16.09 Fair CLR 15 12.2 83% 76.15 1015.1
28 20:53 S 7 16.09 Fair CLR 15 12.8 87% 76.12 1014.7
28 19:53 S 13 16.09 Fair CLR 17.8 13.3 75% 76.07 1014.0
28 18:53 S 7 16.09 Fair CLR 21.1 12.8 59% 76.07 1014.1
28 17:53 SW 9 16.09 Fair CLR 21.1 12.8 59% 76.05 1013.9
28 16:53 SW 11 16.09 Fair CLR 23.3 14.4 26.7 18.9 57% 76.05 1013.8
28 15:53 Vrbl 6 16.09 Fair CLR 26.1 12.8 44% 26 76.1 1014.3
28 14:53 SE 7 16.09 Mostly Cloudy BKN100 22.8 14.4 59% 76.17 1015.3
28 13:53 S 7 16.09 Overcast OVC100 20 15 73% 76.2 1015.9
28 12:53 Calm 16.09 Overcast OVC100 20 15 73% 76.23 1016.1
28 11:53 W 7 16.09 Overcast OVC100 20.6 16.7 78% 76.23 1016.1
28 10:53 Calm 16.09 Overcast OVC120 18.9 15.6 18.9 15.6 81% 76.2 1015.9 0.05
28 09:53 Calm 16.09 Fair CLR 17.2 15.6 90% 76.2 1016.0
28 08:53 S 9 12.87 Light Rain FEW060 SCT080 BKN090 16.7 15.6 93% 76.23 1016.1
28 07:53 Calm 9.66 Light Rain Fog/Mist FEW090 BKN110 16.1 15 93% 76.23 1016.1 0.05 0.05
28 06:53 N 6 11.27 Light Rain BKN110 15.6 14.4 93% 76.2 1016.0
28 05:53 Calm 16.09 A Few Clouds FEW120 16.7 14.4 86% 76.02 1013.4
28 04:53 SW 7 16.09 A Few Clouds FEW120 16.7 14.4 17.2 16.1 86% 76 1013.1
28 03:53 S 6 16.09 Fair CLR 16.7 13.9 84% 76.02 1013.4
28 02:53 N 6 16.09 Fair CLR 16.7 13.9 84% 76 1013.0
28 01:53 Calm 16.09 Fair CLR 16.1 13.9 87% 76.02 1013.4
28 00:53 Calm 16.09 Fair CLR 16.1 13.9 87% 76.05 1013.6
Date Time (pdt) Wind (kph) Vis. (km) Weather Sky Cond. Air Dwpt Max. Min. Relative Humidity Wind Chill (°C) Heat Index (°C) altimeter (cm) sea level (mb) 1 hr 3 hr 6 hr
6 hour
Temperature (ºC) Pressure Precipitation (cm)